Time;durP1;ratioP1;P1;durP2;ratioP2;P2;SDS_P1;SDS_P2;PMS_P1;PMS_P2;Temp;Humidity;BMP_temperature;BMP_pressure;BME280_temperature;BME280_humidity;BME280_pressure;Samples;Min_cycle;Max_cycle;Signal;HPM_P1;HPM_P2
2023/07/13 00:02:04;;;;;;;6.15;3.83;;;;;;;21.58;52.10;95041.53;5110271;28;20030;-83
2023/07/13 00:04:30;;;;;;;6.35;4.07;;;;;;;21.62;52.06;95037.53;5093654;28;20038;-83
2023/07/13 00:06:55;;;;;;;5.30;4.13;;;;;;;21.60;51.94;95044.81;5110425;28;20443;-84
2023/07/13 00:09:21;;;;;;;4.43;3.83;;;;;;;21.61;51.87;95048.28;5093480;28;20054;-83
2023/07/13 00:11:51;;;;;;;6.10;4.07;;;;;;;21.51;52.28;95038.03;5093164;28;20394;-84
2023/07/13 00:14:16;;;;;;;4.85;4.05;;;;;;;21.57;52.23;95047.03;5093581;28;20023;-83
2023/07/13 00:16:43;;;;;;;6.25;4.38;;;;;;;21.44;52.57;95031.06;5110271;28;20088;-83
2023/07/13 00:19:09;;;;;;;4.22;3.60;;;;;;;21.51;52.07;95032.75;5110446;28;20032;-83
2023/07/13 00:21:34;;;;;;;5.07;3.95;;;;;;;21.38;52.05;95017.59;5110055;28;20409;-83
2023/07/13 00:24:01;;;;;;;4.47;3.92;;;;;;;21.31;53.33;95043.09;5093151;28;20028;-83
2023/07/13 00:26:26;;;;;;;5.35;4.05;;;;;;;21.40;53.36;95049.94;5093184;28;20062;-83
2023/07/13 00:28:52;;;;;;;6.00;4.40;;;;;;;21.40;52.68;95051.75;5093352;28;20118;-83
2023/07/13 00:31:17;;;;;;;4.50;3.60;;;;;;;21.14;53.67;95031.13;5109849;28;20040;-83
2023/07/13 00:33:43;;;;;;;6.60;4.05;;;;;;;21.39;52.67;95045.63;5110319;28;20541;-83
2023/07/13 00:36:08;;;;;;;7.13;4.15;;;;;;;21.35;52.58;95039.06;5093232;28;20023;-83
2023/07/13 00:38:34;;;;;;;5.05;3.67;;;;;;;21.26;52.77;95039.38;5110247;28;20511;-82
2023/07/13 00:41:00;;;;;;;5.80;4.15;;;;;;;21.23;53.13;95034.47;5109765;28;20414;-83
2023/07/13 00:43:26;;;;;;;4.75;4.03;;;;;;;21.07;53.21;95014.41;5110072;28;20031;-83
2023/07/13 00:45:52;;;;;;;5.90;4.53;;;;;;;21.22;52.98;95028.34;5093253;28;20505;-82
2023/07/13 00:48:20;;;;;;;5.43;4.38;;;;;;;21.15;53.33;95030.13;5109707;28;20036;-83
2023/07/13 00:50:48;;;;;;;5.00;4.05;;;;;;;21.15;53.20;95030.13;5113089;28;20490;-83
2023/07/13 00:53:14;;;;;;;5.45;4.28;;;;;;;21.08;53.49;95031.88;5113737;28;20180;-83
2023/07/13 00:55:39;;;;;;;7.43;4.72;;;;;;;21.12;53.26;95030.50;5079807;28;20114;-84
2023/07/13 00:58:06;;;;;;;5.07;3.97;;;;;;;21.09;53.28;95023.78;5113519;28;20027;-83
2023/07/13 01:00:32;;;;;;;5.78;4.32;;;;;;;21.15;53.33;95020.38;5096615;28;20027;-83
2023/07/13 01:02:57;;;;;;;7.00;4.53;;;;;;;21.09;53.42;95022.94;5113482;28;20418;-83
2023/07/13 01:05:22;;;;;;;5.78;4.65;;;;;;;20.97;53.45;95007.56;5113555;28;20028;-83
2023/07/13 01:07:49;;;;;;;6.75;4.15;;;;;;;21.03;53.94;95003.38;5096458;28;20028;-84
2023/07/13 01:10:39;;;;;;;6.75;4.53;;;;;;;21.07;53.87;95017.03;5096371;28;20114;-83
2023/07/13 01:13:06;;;;;;;6.18;4.53;;;;;;;20.92;53.92;95017.91;5114371;28;20039;-82
2023/07/13 01:15:43;;;;;;;5.78;4.50;;;;;;;20.88;54.07;95024.53;5079391;28;20444;-82
2023/07/13 01:18:10;;;;;;;6.20;4.53;;;;;;;20.91;53.96;95015.44;5113223;28;20059;-82
2023/07/13 01:20:36;;;;;;;6.70;4.07;;;;;;;20.89;53.72;95012.97;5079543;28;20031;-82
2023/07/13 01:23:06;;;;;;;5.20;4.10;;;;;;;20.94;53.23;95023.78;5095920;28;20611;-83
2023/07/13 01:25:31;;;;;;;5.72;3.97;;;;;;;20.96;53.65;95011.22;5096511;28;20423;-83
2023/07/13 01:27:57;;;;;;;7.15;4.50;;;;;;;20.97;53.59;95019.97;5113191;28;20052;-83
2023/07/13 01:30:22;;;;;;;6.13;4.55;;;;;;;20.93;53.94;95022.16;5096365;28;20028;-83
2023/07/13 01:32:48;;;;;;;7.25;4.30;;;;;;;21.01;54.17;95029.16;5095779;28;20050;-83
2023/07/13 01:35:13;;;;;;;6.90;4.40;;;;;;;20.87;54.27;95024.75;5113117;28;20088;-83
2023/07/13 01:37:38;;;;;;;7.45;4.47;;;;;;;20.65;54.40;94989.56;5112905;28;20035;-84
2023/07/13 01:40:04;;;;;;;6.10;4.18;;;;;;;20.81;53.95;95017.53;5095763;28;20481;-83
2023/07/13 01:42:30;;;;;;;6.72;4.68;;;;;;;20.73;54.54;95018.47;5113678;28;20028;-83
2023/07/13 01:44:55;;;;;;;7.38;4.40;;;;;;;20.89;53.23;95015.59;5113096;28;20050;-83
2023/07/13 01:47:22;;;;;;;5.05;4.38;;;;;;;20.81;53.53;95015.75;5114168;28;20121;-83
2023/07/13 01:49:48;;;;;;;6.32;4.57;;;;;;;20.97;53.44;95026.06;5095850;28;20032;-83
2023/07/13 01:52:13;;;;;;;5.07;4.53;;;;;;;20.94;53.32;95020.34;5113521;28;20039;-83
2023/07/13 01:54:38;;;;;;;5.30;4.15;;;;;;;20.89;53.97;95023.53;5095501;28;20028;-83
2023/07/13 01:57:04;;;;;;;6.88;4.38;;;;;;;20.87;53.56;95007.06;5113710;28;20508;-83
2023/07/13 01:59:30;;;;;;;5.18;4.53;;;;;;;21.01;52.60;95008.03;5113671;27;20034;-83
2023/07/13 02:01:55;;;;;;;6.80;4.18;;;;;;;21.04;53.06;95027.97;5118212;27;20038;-83
2023/07/13 02:04:20;;;;;;;6.50;4.53;;;;;;;20.94;53.08;95020.34;5120796;27;20028;-83
2023/07/13 02:06:46;;;;;;;5.25;4.43;;;;;;;20.89;52.18;94993.66;5113573;27;20031;-83
2023/07/13 02:09:11;;;;;;;7.32;4.80;;;;;;;21.06;52.88;95023.31;5121507;27;20046;-83
2023/07/13 02:11:37;;;;;;;5.97;4.40;;;;;;;20.75;52.97;94996.19;5098674;28;20039;-83
2023/07/13 02:14:02;;;;;;;5.10;4.20;;;;;;;20.96;53.16;95020.97;5079478;27;20030;-83
2023/07/13 02:16:28;;;;;;;4.70;4.13;;;;;;;20.86;53.63;95007.25;5123464;27;20507;-83
2023/07/13 02:18:55;;;;;;;5.15;4.30;;;;;;;20.88;53.95;95037.75;5113189;27;20091;-83
2023/07/13 02:21:21;;;;;;;6.65;4.60;;;;;;;20.82;54.04;95033.22;5112873;28;20551;-83
2023/07/13 02:23:46;;;;;;;7.10;5.20;;;;;;;20.76;54.14;95028.66;5111452;28;20092;-83
2023/07/13 02:26:12;;;;;;;6.47;4.50;;;;;;;20.60;54.22;95008.56;5112891;28;20531;-83
2023/07/13 02:28:37;;;;;;;7.18;4.53;;;;;;;20.60;54.63;95023.59;5094826;28;20485;-83
2023/07/13 02:31:11;;;;;;;14.43;5.57;;;;;;;20.60;54.74;95024.41;5111553;28;20505;-83
2023/07/13 02:33:36;;;;;;;6.35;4.38;;;;;;;20.54;54.92;95011.94;5095022;28;20127;-83
2023/07/13 02:36:02;;;;;;;5.88;4.50;;;;;;;20.51;54.89;95036.84;5111530;28;20493;-84
2023/07/13 02:38:27;;;;;;;6.68;5.20;;;;;;;20.56;54.75;95032.88;5094737;28;20119;-83
2023/07/13 02:40:53;;;;;;;5.40;4.63;;;;;;;20.59;54.37;95028.06;5111254;28;20035;-83
2023/07/13 02:43:18;;;;;;;5.53;4.45;;;;;;;20.48;54.86;95026.66;5077602;28;20031;-83
2023/07/13 02:45:45;;;;;;;5.68;4.40;;;;;;;20.56;54.74;95028.44;5094653;28;20038;-83
2023/07/13 02:48:10;;;;;;;7.20;4.93;;;;;;;20.59;54.61;95043.03;5111847;28;20062;-83
2023/07/13 02:50:35;;;;;;;5.80;4.88;;;;;;;20.52;54.49;95017.38;5111120;28;20039;-83
2023/07/13 02:53:01;;;;;;;5.22;4.05;;;;;;;20.58;54.48;95025.59;5094150;28;20034;-83
2023/07/13 02:55:26;;;;;;;6.15;4.40;;;;;;;20.59;54.40;95032.50;5094405;28;20046;-83
2023/07/13 02:57:52;;;;;;;6.00;4.60;;;;;;;20.67;54.53;95045.59;5111463;28;20023;-83
2023/07/13 03:00:17;;;;;;;7.18;4.25;;;;;;;20.30;55.48;95023.56;5111173;28;20036;-83
2023/07/13 03:02:43;;;;;;;7.13;4.70;;;;;;;20.37;55.25;95016.56;5111129;28;20028;-83
2023/07/13 03:05:12;;;;;;;6.15;4.40;;;;;;;20.55;55.42;95039.97;5094230;28;20072;-82
2023/07/13 03:07:38;;;;;;;5.68;4.30;;;;;;;20.60;55.05;95037.59;5112797;28;20460;-82
2023/07/13 03:10:04;;;;;;;6.10;4.70;;;;;;;20.42;55.44;95021.28;5110877;28;20592;-81
2023/07/13 03:12:29;;;;;;;5.53;4.70;;;;;;;20.27;56.01;95045.03;5110082;28;20034;-83
2023/07/13 03:14:54;;;;;;;7.55;4.20;;;;;;;20.31;56.64;95044.50;5094403;28;20401;-83
2023/07/13 03:17:20;;;;;;;4.85;4.30;;;;;;;20.16;57.34;95048.13;5112653;27;20080;-83
2023/07/13 03:19:49;;;;;;;6.32;4.82;;;;;;;20.16;56.79;95053.38;5106451;28;20028;-83
2023/07/13 03:22:15;;;;;;;5.53;4.38;;;;;;;20.25;57.77;95047.03;5077917;28;20035;-83
2023/07/13 03:24:41;;;;;;;8.98;4.80;;;;;;;20.13;57.80;95043.19;5114574;27;20023;-83
2023/07/13 03:27:06;;;;;;;5.53;4.93;;;;;;;20.08;56.99;95059.56;5113363;28;20096;-83
2023/07/13 03:29:32;;;;;;;6.28;4.55;;;;;;;20.03;57.91;95068.03;5121539;27;20473;-82
2023/07/13 03:31:57;;;;;;;7.05;4.65;;;;;;;19.59;59.00;95063.41;5110916;28;20028;-82
2023/07/13 03:34:22;;;;;;;8.38;4.75;;;;;;;19.79;58.09;95055.88;5077304;28;20035;-83
2023/07/13 03:36:48;;;;;;;7.55;4.70;;;;;;;19.92;58.33;95060.53;5076870;28;20031;-83
2023/07/13 03:39:13;;;;;;;5.50;4.35;;;;;;;20.00;58.62;95060.47;5110600;28;20043;-83
2023/07/13 03:41:39;;;;;;;6.70;4.55;;;;;;;19.92;58.00;95062.34;5110782;28;20031;-82
2023/07/13 03:44:04;;;;;;;6.15;4.90;;;;;;;20.12;57.15;95062.66;5090295;28;20039;-83
2023/07/13 03:46:29;;;;;;;6.32;5.00;;;;;;;20.03;57.53;95046.09;5102643;28;20382;-82
2023/07/13 03:48:55;;;;;;;4.88;4.22;;;;;;;19.83;57.46;95024.69;5090159;28;20062;-83
2023/07/13 03:51:20;;;;;;;6.68;4.78;;;;;;;20.12;57.28;95042.38;5090198;28;20081;-82
2023/07/13 03:53:46;;;;;;;9.65;5.13;;;;;;;20.28;57.07;95046.66;5090377;28;20016;-83
2023/07/13 03:56:13;;;;;;;9.02;5.30;;;;;;;20.26;57.02;95041.56;5072985;28;20509;-83
2023/07/13 03:58:39;;;;;;;6.03;4.80;;;;;;;20.32;56.97;95042.66;5090152;28;20020;-82
2023/07/13 04:01:06;;;;;;;6.88;5.10;;;;;;;20.24;57.19;95045.41;5090120;28;20032;-83
2023/07/13 04:03:32;;;;;;;6.38;4.63;;;;;;;20.29;57.44;95033.31;5090222;28;20035;-83
2023/07/13 04:06:08;;;;;;;8.27;5.13;;;;;;;20.39;56.64;95032.19;5090066;28;20039;-82
2023/07/13 04:08:34;;;;;;;7.32;5.20;;;;;;;20.57;56.83;95047.72;5104302;28;20485;-82
2023/07/13 04:11:00;;;;;;;6.47;4.50;;;;;;;20.53;56.65;95023.50;5076204;28;20031;-83
2023/07/13 04:13:25;;;;;;;5.65;5.05;;;;;;;21.14;55.20;95041.69;5076816;28;20028;-83
2023/07/13 04:15:51;;;;;;;8.05;4.90;;;;;;;22.01;53.08;95041.50;5091752;28;20034;-83
2023/07/13 04:18:17;;;;;;;8.90;5.13;;;;;;;22.37;51.96;95047.66;5110087;28;20394;-83
2023/07/13 04:20:42;;;;;;;5.82;4.72;;;;;;;23.19;50.69;95046.88;5110284;28;20035;-82
2023/07/13 04:23:08;;;;;;;5.63;4.80;;;;;;;23.83;49.98;95059.66;5110241;28;20035;-83
2023/07/13 04:25:33;;;;;;;5.38;4.50;;;;;;;24.52;47.80;95045.13;5096607;28;20039;-83
2023/07/13 04:27:58;;;;;;;6.28;4.95;;;;;;;24.93;46.28;95049.31;5096771;28;20043;-83
2023/07/13 04:30:24;;;;;;;7.93;4.47;;;;;;;25.12;45.83;95041.44;5114120;28;20112;-82
2023/07/13 04:32:51;;;;;;;6.00;4.50;;;;;;;26.19;42.80;95062.91;5097266;28;20016;-83
2023/07/13 04:35:17;;;;;;;4.78;4.10;;;;;;;26.79;43.53;95059.69;5114249;28;20027;-83
2023/07/13 04:37:43;;;;;;;5.47;4.80;;;;;;;27.27;42.61;95058.94;5096652;28;20031;-82
2023/07/13 04:40:12;;;;;;;5.28;4.05;;;;;;;27.70;42.10;95047.28;5112904;28;20047;-82
2023/07/13 04:42:38;;;;;;;6.32;4.40;;;;;;;28.19;41.35;95056.75;5095666;28;20172;-83
2023/07/13 04:45:05;;;;;;;7.90;4.32;;;;;;;28.10;41.15;95038.66;5096905;28;20113;-81
2023/07/13 04:47:31;;;;;;;5.80;4.55;;;;;;;28.57;39.50;95060.88;5094047;28;20110;-82
2023/07/13 04:49:57;;;;;;;9.13;4.63;;;;;;;28.21;39.85;95075.25;5113223;27;20524;-82
2023/07/13 04:52:22;;;;;;;7.50;4.82;;;;;;;27.79;39.80;95061.91;5112357;27;20038;-82
2023/07/13 04:54:48;;;;;;;7.82;4.63;;;;;;;27.47;40.16;95045.31;5079766;28;20032;-82
2023/07/13 04:57:13;;;;;;;7.53;4.90;;;;;;;27.39;41.48;95078.47;5113556;27;20048;-82
2023/07/13 04:59:39;;;;;;;9.73;5.20;;;;;;;27.41;41.48;95076.38;5113973;28;20026;-83
2023/07/13 05:02:05;;;;;;;9.07;4.82;;;;;;;27.47;41.07;95072.00;5095118;28;20036;-82
2023/07/13 05:04:31;;;;;;;6.47;4.88;;;;;;;27.37;41.43;95083.22;5091096;27;20441;-84
2023/07/13 05:06:56;;;;;;;9.85;4.90;;;;;;;27.32;41.92;95072.41;5086940;28;20123;-85
2023/07/13 05:09:22;;;;;;;7.63;4.95;;;;;;;26.92;43.11;95078.19;5076385;28;20032;-85
2023/07/13 05:11:47;;;;;;;10.30;5.20;;;;;;;26.68;43.28;95088.69;5072413;28;20047;-86
2023/07/13 05:14:13;;;;;;;7.97;5.15;;;;;;;26.61;43.37;95095.13;5098423;27;20039;-84
2023/07/13 05:16:38;;;;;;;10.23;5.07;;;;;;;26.54;43.65;95095.19;5109571;28;20027;-83
2023/07/13 05:19:03;;;;;;;12.68;5.90;;;;;;;26.68;43.17;95087.88;5125338;27;20035;-81
2023/07/13 05:21:29;;;;;;;8.93;5.43;;;;;;;26.48;43.96;95078.19;5113236;28;20577;-82
2023/07/13 05:23:54;;;;;;;10.10;5.60;;;;;;;26.34;44.29;95082.03;5112715;28;20038;-80
2023/07/13 05:26:23;;;;;;;7.20;4.70;;;;;;;26.78;45.23;95087.38;5093380;28;20120;-83
2023/07/13 05:28:48;;;;;;;5.53;4.93;;;;;;;26.69;44.65;95074.34;5094074;28;20493;-82
2023/07/13 05:31:14;;;;;;;9.45;5.30;;;;;;;26.63;44.14;95088.53;5093858;28;20077;-83
2023/07/13 05:33:39;;;;;;;9.77;5.20;;;;;;;26.34;44.35;95094.53;5094910;28;20023;-82
2023/07/13 05:36:05;;;;;;;15.48;6.60;;;;;;;26.21;45.69;95096.25;5094392;28;20027;-84
2023/07/13 05:38:30;;;;;;;7.97;6.28;;;;;;;26.12;45.38;95096.75;5078971;28;20023;-84
2023/07/13 05:40:57;;;;;;;8.57;5.60;;;;;;;26.21;45.16;95087.44;5095925;28;20027;-84
2023/07/13 05:43:23;;;;;;;8.90;5.95;;;;;;;26.39;45.68;95102.69;5112727;28;20396;-83
2023/07/13 05:45:49;;;;;;;11.65;6.38;;;;;;;26.21;45.28;95096.25;5095918;28;20036;-84
2023/07/13 05:48:15;;;;;;;8.35;5.95;;;;;;;26.24;44.97;95095.00;5095902;28;20065;-81
2023/07/13 05:50:40;;;;;;;10.93;6.30;;;;;;;26.23;45.60;95083.53;5096697;28;20031;-81
2023/07/13 05:53:06;;;;;;;6.95;5.63;;;;;;;26.34;45.64;95092.66;5095688;28;20028;-81
2023/07/13 05:55:31;;;;;;;8.85;5.95;;;;;;;26.40;45.69;95093.63;5096255;28;20032;-81
2023/07/13 05:57:57;;;;;;;10.82;6.40;;;;;;;26.61;45.06;95095.13;5078854;28;20092;-81
2023/07/13 06:00:24;;;;;;;8.40;5.95;;;;;;;27.02;45.11;95067.00;5108596;27;20122;-81
2023/07/13 06:02:49;;;;;;;11.18;6.00;;;;;;;26.98;44.18;95074.63;5126020;27;20020;-81
2023/07/13 06:05:15;;;;;;;11.35;7.05;;;;;;;26.93;44.02;95082.47;5122578;27;20067;-81
2023/07/13 06:07:41;;;;;;;12.52;6.57;;;;;;;26.94;43.80;95079.59;5095781;28;20023;-80
2023/07/13 06:10:06;;;;;;;12.43;6.28;;;;;;;27.10;44.26;95090.69;5078275;28;20040;-80
2023/07/13 06:12:32;;;;;;;8.20;6.65;;;;;;;27.33;43.24;95084.69;5112007;28;20015;-80
2023/07/13 06:14:57;;;;;;;8.50;6.50;;;;;;;27.65;42.77;95081.81;5078573;28;20031;-80
2023/07/13 06:17:23;;;;;;;13.15;6.05;;;;;;;27.71;43.60;95064.91;5112326;28;20020;-80
2023/07/13 06:19:48;;;;;;;10.73;6.35;;;;;;;27.68;43.19;95060.03;5078591;28;20063;-80
2023/07/13 06:22:13;;;;;;;9.48;6.32;;;;;;;27.62;43.65;95077.75;5094652;28;20032;-80
2023/07/13 06:24:39;;;;;;;11.43;6.03;;;;;;;27.52;44.41;95078.28;5112400;28;20125;-80
2023/07/13 06:27:05;;;;;;;11.25;5.90;;;;;;;27.44;44.54;95085.78;5094664;28;20052;-79
2023/07/13 06:29:31;;;;;;;10.80;6.30;;;;;;;27.34;44.56;95073.00;5085733;27;20027;-83
2023/07/13 06:31:56;;;;;;;12.30;5.90;;;;;;;27.48;45.04;95082.44;5123599;27;20027;-83
2023/07/13 06:34:22;;;;;;;14.00;6.43;;;;;;;27.78;44.91;95070.97;5075987;28;20109;-82
2023/07/13 06:36:47;;;;;;;9.55;5.90;;;;;;;27.98;44.38;95084.03;5108547;27;20035;-82
2023/07/13 06:39:13;;;;;;;10.43;6.65;;;;;;;27.40;44.79;95074.75;5109457;27;20234;-82
2023/07/13 06:41:38;;;;;;;12.48;6.60;;;;;;;27.22;45.31;95075.63;5132088;27;20473;-82
2023/07/13 06:44:04;;;;;;;8.32;6.85;;;;;;;27.52;44.93;95083.63;5106437;28;20031;-83
2023/07/13 06:46:30;;;;;;;11.43;7.47;;;;;;;27.53;44.84;95077.25;5094676;28;20027;-84
2023/07/13 06:48:55;;;;;;;13.77;7.43;;;;;;;27.38;44.88;95079.50;5114002;27;20035;-83
2023/07/13 06:51:21;;;;;;;8.75;6.95;;;;;;;27.60;44.45;95085.97;5104329;27;20031;-85
2023/07/13 06:53:46;;;;;;;7.72;6.65;;;;;;;27.45;44.19;95096.25;5115247;27;20416;-84
2023/07/13 06:56:12;;;;;;;8.40;6.72;;;;;;;27.69;43.79;95078.44;5133272;27;20015;-85
2023/07/13 06:58:38;;;;;;;7.13;6.30;;;;;;;27.80;43.25;95082.22;5098175;27;20070;-85
2023/07/13 07:01:04;;;;;;;9.45;6.82;;;;;;;27.54;43.93;95081.53;5114576;27;20034;-84
2023/07/13 07:03:29;;;;;;;10.40;6.65;;;;;;;27.66;42.86;95048.75;5132010;27;20074;-85
2023/07/13 07:06:00;;;;;;;10.85;6.68;;;;;;;27.94;43.68;95081.00;5132188;27;20023;-84
2023/07/13 07:08:26;;;;;;;11.43;6.97;;;;;;;28.20;43.02;95086.97;5115317;27;20491;-85
2023/07/13 07:10:53;;;;;;;11.35;7.85;;;;;;;28.13;42.21;95075.56;5114506;27;20034;-85
2023/07/13 07:13:19;;;;;;;8.38;6.50;;;;;;;28.21;41.93;95085.94;5131900;27;20031;-84
2023/07/13 07:15:45;;;;;;;10.10;6.88;;;;;;;28.34;41.06;95076.91;5114584;27;20091;-83
2023/07/13 07:18:10;;;;;;;9.23;6.28;;;;;;;28.49;41.41;95080.75;5114514;27;20023;-84
2023/07/13 07:20:35;;;;;;;9.75;6.32;;;;;;;28.66;40.16;95074.69;5131461;27;20035;-84
2023/07/13 07:23:01;;;;;;;10.32;6.80;;;;;;;28.71;40.59;95086.31;5114568;27;20031;-84
2023/07/13 07:25:26;;;;;;;7.70;6.32;;;;;;;29.08;40.21;95096.75;5131859;27;20027;-84
2023/07/13 07:27:52;;;;;;;7.50;6.70;;;;;;;28.45;41.84;95084.94;5114704;27;20043;-84
2023/07/13 07:30:17;;;;;;;10.13;6.70;;;;;;;28.77;41.14;95100.59;5114372;27;20031;-84
2023/07/13 07:32:43;;;;;;;8.40;6.68;;;;;;;29.07;40.76;95067.59;5132008;27;20025;-84
2023/07/13 07:35:08;;;;;;;8.13;6.47;;;;;;;29.09;39.94;95070.84;5131725;27;20032;-83
2023/07/13 07:37:34;;;;;;;10.68;6.90;;;;;;;28.82;40.39;95073.19;5114148;27;20050;-84
2023/07/13 07:39:59;;;;;;;8.77;7.40;;;;;;;29.06;40.54;95073.97;5131521;27;20061;-84
2023/07/13 07:42:25;;;;;;;10.43;6.78;;;;;;;29.39;40.24;95070.59;5114610;27;20024;-84
2023/07/13 07:44:50;;;;;;;10.73;6.80;;;;;;;29.52;40.59;95070.34;5131363;27;20080;-84
2023/07/13 07:47:16;;;;;;;7.53;6.72;;;;;;;29.56;39.33;95070.66;5097042;27;20050;-83
2023/07/13 07:49:41;;;;;;;6.47;5.88;;;;;;;29.82;38.97;95050.56;5131547;27;20019;-83
2023/07/13 07:52:07;;;;;;;10.98;6.28;;;;;;;30.12;38.66;95049.47;5097082;28;20031;-83
2023/07/13 07:54:33;;;;;;;8.38;6.10;;;;;;;30.31;38.34;95050.03;5132869;27;20511;-83
2023/07/13 07:56:58;;;;;;;7.03;6.25;;;;;;;30.14;38.77;95050.81;5113830;28;20517;-83
2023/07/13 07:59:24;;;;;;;11.20;6.68;;;;;;;30.23;38.09;95040.56;5115505;27;20034;-84
2023/07/13 08:01:50;;;;;;;7.90;6.95;;;;;;;30.29;38.79;95044.94;5118317;27;20433;-83
2023/07/13 08:04:16;;;;;;;8.10;6.57;;;;;;;30.08;38.46;95043.75;5118680;27;20070;-83
2023/07/13 08:06:42;;;;;;;11.90;6.95;;;;;;;29.88;39.01;95036.19;5101226;27;20043;-83
2023/07/13 08:09:07;;;;;;;9.75;6.75;;;;;;;30.26;37.92;95046.22;5118445;27;20023;-84
2023/07/13 08:11:33;;;;;;;10.18;6.38;;;;;;;30.65;37.22;95040.91;5136664;27;20031;-84
2023/07/13 08:13:58;;;;;;;8.57;6.38;;;;;;;30.81;37.86;95033.06;5100982;27;20019;-84
2023/07/13 08:16:24;;;;;;;8.77;5.90;;;;;;;30.89;37.38;95028.09;5117769;27;20424;-83
2023/07/13 08:18:49;;;;;;;7.82;6.60;;;;;;;30.86;37.59;95023.22;5136597;27;20397;-83
2023/07/13 08:21:15;;;;;;;9.25;6.38;;;;;;;30.86;37.24;95025.09;5135197;27;20118;-83
2023/07/13 08:23:40;;;;;;;12.90;6.70;;;;;;;30.68;37.93;95018.16;5118006;27;20034;-83
2023/07/13 08:26:06;;;;;;;7.25;6.50;;;;;;;30.94;37.62;95006.69;5117380;27;20032;-84
2023/07/13 08:28:32;;;;;;;10.00;6.80;;;;;;;30.86;37.89;95020.53;5117704;27;20033;-84
2023/07/13 08:31:04;;;;;;;7.80;6.70;;;;;;;30.67;37.75;95014.66;5117706;27;20115;-84
2023/07/13 08:33:30;;;;;;;7.75;6.60;;;;;;;31.21;36.89;95010.50;5100831;27;20407;-83
2023/07/13 08:35:55;;;;;;;9.02;6.65;;;;;;;31.20;37.16;95006.19;5117632;27;20031;-83
2023/07/13 08:38:21;;;;;;;7.35;6.15;;;;;;;31.13;37.17;95003.72;5117576;27;20042;-83
2023/07/13 08:40:52;;;;;;;11.73;6.55;;;;;;;31.10;37.31;95002.34;5134856;27;20039;-83
2023/07/13 08:43:20;;;;;;;8.52;6.28;;;;;;;31.20;37.15;95007.00;5100927;27;20492;-83
2023/07/13 08:45:54;;;;;;;9.77;6.53;;;;;;;31.08;37.14;94996.41;5117520;27;20020;-83
2023/07/13 08:48:28;;;;;;;9.18;6.40;;;;;;;31.16;37.08;94997.84;5117968;27;20027;-83
2023/07/13 08:51:04;;;;;;;14.05;6.63;;;;;;;31.35;36.01;94991.06;5100477;27;20390;-83
2023/07/13 08:53:35;;;;;;;7.55;6.70;;;;;;;31.33;36.52;94989.69;5100672;27;20031;-84
2023/07/13 08:56:01;;;;;;;10.15;6.07;;;;;;;31.38;36.51;94984.41;5100768;27;20136;-83
2023/07/13 08:58:28;;;;;;;7.93;6.50;;;;;;;31.33;36.10;94993.19;5134477;27;20035;-83
2023/07/13 09:01:05;;;;;;;14.02;7.25;;;;;;;31.28;36.42;95001.19;5100524;27;20038;-83
2023/07/13 09:03:36;;;;;;;10.43;6.72;;;;;;;31.29;36.47;95005.50;5134555;27;20039;-83
2023/07/13 09:06:02;;;;;;;8.32;6.43;;;;;;;31.33;36.23;95009.28;5117033;27;20299;-84
2023/07/13 09:08:33;;;;;;;8.13;6.82;;;;;;;31.56;36.33;95005.50;5117330;27;20122;-83
2023/07/13 09:11:18;;;;;;;8.60;6.10;;;;;;;31.55;35.97;95013.84;5134036;27;20516;-83
2023/07/13 09:14:06;;;;;;;7.45;6.50;;;;;;;31.59;35.22;95029.19;5117096;27;20404;-84
2023/07/13 09:16:33;;;;;;;8.48;6.07;;;;;;;31.57;34.80;95041.25;5119813;27;20027;-84
2023/07/13 09:19:04;;;;;;;8.48;6.28;;;;;;;31.60;33.90;95036.16;5116894;27;20035;-83
2023/07/13 09:21:30;;;;;;;9.25;6.25;;;;;;;31.77;34.05;95044.13;5100013;27;20031;-84
2023/07/13 09:24:01;;;;;;;8.85;5.80;;;;;;;31.72;34.17;95032.53;5116822;27;20035;-83
2023/07/13 09:26:26;;;;;;;9.30;6.30;;;;;;;31.77;33.79;95032.56;5116818;27;20062;-84
2023/07/13 09:28:55;;;;;;;8.35;5.85;;;;;;;32.02;34.38;95038.19;5133485;27;20027;-84
2023/07/13 09:31:26;;;;;;;6.82;6.03;;;;;;;31.99;34.06;95030.66;5099737;27;20057;-83
2023/07/13 09:33:51;;;;;;;10.85;6.30;;;;;;;32.24;33.27;95034.59;5100309;27;20025;-83
2023/07/13 09:36:23;;;;;;;12.63;6.72;;;;;;;32.23;33.62;95030.28;5116548;27;20031;-83
2023/07/13 09:39:05;;;;;;;7.97;6.07;;;;;;;32.23;33.76;95043.72;5116963;27;20548;-83
2023/07/13 09:41:41;;;;;;;8.43;6.25;;;;;;;32.20;33.41;95047.72;5102018;27;20033;-83
2023/07/13 09:44:11;;;;;;;7.43;6.30;;;;;;;32.13;33.08;95022.16;5134802;27;20031;-83
2023/07/13 09:46:37;;;;;;;6.60;5.90;;;;;;;32.33;32.99;95030.38;5134044;27;20095;-83
2023/07/13 09:49:03;;;;;;;9.98;5.65;;;;;;;32.24;33.39;95034.59;5116800;27;20024;-83
2023/07/13 09:51:28;;;;;;;9.75;5.97;;;;;;;32.23;32.79;95028.44;5116392;27;20092;-83
2023/07/13 09:53:54;;;;;;;7.90;5.80;;;;;;;32.42;32.23;95020.75;5116226;27;20516;-82
2023/07/13 09:56:27;;;;;;;7.80;5.70;;;;;;;32.58;32.26;95023.56;5099385;27;20036;-83
2023/07/13 09:58:53;;;;;;;6.60;5.72;;;;;;;32.44;32.32;95009.75;5099361;27;20150;-83
2023/07/13 10:01:38;;;;;;;9.63;5.60;;;;;;;32.51;32.75;95009.53;5116432;27;20049;-82
2023/07/13 10:04:13;;;;;;;7.70;5.55;;;;;;;32.65;33.04;94997.25;5132888;27;20061;-83
2023/07/13 10:06:40;;;;;;;7.88;5.82;;;;;;;32.39;32.05;94994.38;5116396;27;20080;-83
2023/07/13 10:09:07;;;;;;;11.45;5.93;;;;;;;32.48;32.71;94998.25;5132852;27;20030;-83
2023/07/13 10:11:34;;;;;;;8.05;5.60;;;;;;;32.33;32.13;94990.06;5115919;27;20030;-83
2023/07/13 10:14:01;;;;;;;9.57;5.97;;;;;;;32.60;32.49;94983.81;5098934;27;20084;-83
2023/07/13 10:16:32;;;;;;;8.40;5.40;;;;;;;32.47;32.58;94977.81;5132842;27;20039;-83
2023/07/13 10:19:22;;;;;;;7.47;5.70;;;;;;;32.74;31.17;94986.81;5099643;27;20397;-82
2023/07/13 10:22:01;;;;;;;7.05;5.53;;;;;;;32.67;31.99;94984.34;5114892;27;20039;-83
2023/07/13 10:24:31;;;;;;;11.90;6.13;;;;;;;32.81;31.83;94969.34;5116312;27;20482;-83
2023/07/13 10:27:17;;;;;;;9.18;5.60;;;;;;;32.67;32.75;94979.78;5115760;27;20138;-83
2023/07/13 10:29:48;;;;;;;7.75;6.28;;;;;;;32.66;33.43;94983.56;5133890;27;20047;-83
2023/07/13 10:32:14;;;;;;;7.05;6.28;;;;;;;32.76;33.75;94982.78;5132524;27;20026;-83
2023/07/13 10:34:44;;;;;;;5.95;5.30;;;;;;;32.90;32.60;94975.88;5136745;27;20497;-83
2023/07/13 10:37:16;;;;;;;9.68;6.10;;;;;;;32.68;31.23;94953.69;5115384;27;20618;-84
2023/07/13 10:39:42;;;;;;;8.98;5.90;;;;;;;32.96;32.14;94970.47;5098460;27;20553;-85
2023/07/13 10:42:09;;;;;;;9.27;6.05;;;;;;;32.89;30.79;94960.78;5115266;27;20027;-84
2023/07/13 10:44:35;;;;;;;8.43;6.15;;;;;;;33.07;30.71;94966.78;5115088;27;20450;-82
2023/07/13 10:47:03;;;;;;;11.95;6.30;;;;;;;32.98;31.66;94962.97;5132290;27;20066;-82
2023/07/13 10:49:29;;;;;;;8.70;5.82;;;;;;;33.16;30.64;94959.84;5115157;27;20074;-83
2023/07/13 10:51:55;;;;;;;8.80;6.32;;;;;;;32.86;30.27;94955.94;5100229;27;20628;-82
2023/07/13 10:54:29;;;;;;;12.98;6.68;;;;;;;33.06;30.62;94952.53;5115421;27;20056;-82
2023/07/13 10:57:18;;;;;;;10.82;6.75;;;;;;;33.18;31.25;94946.09;5133434;27;20035;-82
2023/07/13 10:59:47;;;;;;;11.80;6.33;;;;;;;33.18;31.22;94938.03;5132198;27;20046;-83
2023/07/13 11:02:26;;;;;;;7.50;6.23;;;;;;;33.09;32.58;94932.34;5115000;27;20023;-82
2023/07/13 11:04:52;;;;;;;10.93;6.85;;;;;;;33.28;30.10;94930.78;5131854;27;20505;-82
2023/07/13 11:07:28;;;;;;;10.18;5.95;;;;;;;33.07;30.39;94929.94;5097968;27;20034;-81
2023/07/13 11:09:57;;;;;;;9.65;6.82;;;;;;;33.04;30.71;94919.72;5132208;27;20031;-82
2023/07/13 11:12:22;;;;;;;8.30;6.32;;;;;;;33.17;30.94;94920.28;5115379;27;20031;-82
2023/07/13 11:14:54;;;;;;;9.00;6.20;;;;;;;33.21;30.43;94919.50;5132021;27;20108;-83
2023/07/13 11:17:38;;;;;;;9.82;6.32;;;;;;;33.12;29.47;94921.88;5131467;27;20364;-83
2023/07/13 11:20:12;;;;;;;7.45;5.72;;;;;;;33.45;29.64;94905.50;5131405;27;20031;-83
2023/07/13 11:22:52;;;;;;;8.25;6.32;;;;;;;33.47;28.85;94906.06;5132770;27;20028;-82
2023/07/13 11:25:26;;;;;;;8.52;5.75;;;;;;;33.37;29.56;94896.88;5099037;27;20027;-82
2023/07/13 11:28:02;;;;;;;10.82;6.05;;;;;;;33.43;29.79;94899.56;5132990;27;20049;-84
2023/07/13 11:30:28;;;;;;;9.80;6.00;;;;;;;33.47;30.13;94903.34;5114455;27;20028;-82
2023/07/13 11:33:14;;;;;;;7.40;6.07;;;;;;;33.45;29.36;94903.63;5132446;27;20026;-84